Time;durP1;ratioP1;P1;durP2;ratioP2;P2;SDS_P1;SDS_P2;PMS_P1;PMS_P2;Temp;Humidity;BMP_temperature;BMP_pressure;BME280_temperature;BME280_humidity;BME280_pressure;Samples;Min_cycle;Max_cycle;Signal;HPM_P1;HPM_P2
2023/10/04 00:00:19;;;;;;;;;;;;;;;28.80;42.15;95347.50;5001244;28;8285;-55
2023/10/04 00:02:50;;;;;;;;;;;;;;;28.82;41.65;95341.44;5019484;28;9487;-55
2023/10/04 00:05:19;;;;;;;;;;;;;;;28.82;41.58;95344.22;5053943;28;7340;-56
2023/10/04 00:07:48;;;;;;;;;;;;;;;28.81;41.60;95340.72;5048303;28;9460;-56
2023/10/04 00:10:16;;;;;;;;;;;;;;;28.79;42.45;95340.47;5052493;28;9207;-56
2023/10/04 00:12:43;;;;;;;;;;;;;;;28.77;42.12;95336.69;5074431;28;7084;-56
2023/10/04 00:15:32;;;;;;;;;;;;;;;28.80;42.41;95335.66;5085695;28;7138;-56
2023/10/04 00:18:17;;;;;;;;;;;;;;;28.79;41.82;95334.19;5075289;28;7249;-56
2023/10/04 00:20:57;;;;;;;;;;;;;;;28.80;41.73;95336.44;5077027;28;7717;-55
2023/10/04 00:23:43;;;;;;;;;;;;;;;28.80;41.82;95330.13;5065657;28;7374;-56
2023/10/04 00:26:22;;;;;;;;;;;;;;;28.78;41.92;95332.66;5053747;28;9078;-56
2023/10/04 00:28:57;;;;;;;;;;;;;;;28.78;41.22;95335.41;5068681;28;7271;-56
2023/10/04 00:31:36;;;;;;;;;;;;;;;28.76;42.08;95329.66;5066198;28;9142;-56
2023/10/04 00:34:31;;;;;;;;;;;;;;;28.78;41.37;95333.41;5074377;28;7239;-60
2023/10/04 00:37:16;;;;;;;;;;;;;;;28.77;41.78;95331.91;5010040;28;6982;-61
2023/10/04 00:39:48;;;;;;;;;;;;;;;28.77;42.31;95329.16;5004110;28;8713;-61
2023/10/04 00:42:15;;;;;;;;;;;;;;;28.76;42.08;95326.88;4984689;28;7208;-61
2023/10/04 00:44:54;;;;;;;;;;;;;;;28.77;41.98;95325.63;5002159;28;9872;-61
2023/10/04 00:47:21;;;;;;;;;;;;;;;28.72;42.33;95307.78;4990333;28;9027;-60
2023/10/04 00:49:48;;;;;;;;;;;;;;;28.74;41.59;95310.78;4983983;28;6993;-61
2023/10/04 00:52:24;;;;;;;;;;;;;;;28.74;41.70;95305.25;5007440;28;9075;-61
2023/10/04 00:55:22;;;;;;;;;;;;;;;28.75;42.27;95308.78;4998944;28;9514;-60
2023/10/04 00:57:56;;;;;;;;;;;;;;;28.71;41.90;95303.47;4946510;28;7429;-61
2023/10/04 01:00:25;;;;;;;;;;;;;;;28.70;41.96;95304.75;4929192;28;7218;-61
2023/10/04 01:02:55;;;;;;;;;;;;;;;28.72;41.63;95310.53;4946778;28;8777;-61
2023/10/04 01:05:47;;;;;;;;;;;;;;;28.74;41.77;95313.56;4935633;28;7478;-61
2023/10/04 01:08:20;;;;;;;;;;;;;;;28.71;42.10;95292.41;4933299;28;7193;-61
2023/10/04 01:10:52;;;;;;;;;;;;;;;28.73;42.28;95294.69;4932344;28;7063;-61
2023/10/04 01:14:06;;;;;;;;;;;;;;;28.71;41.79;95297.94;4965277;28;7005;-61
2023/10/04 01:16:34;;;;;;;;;;;;;;;28.69;42.12;95292.16;5016076;28;7244;-61
2023/10/04 01:19:14;;;;;;;;;;;;;;;28.70;41.66;95290.91;4995544;28;8727;-61
2023/10/04 01:21:52;;;;;;;;;;;;;;;28.68;42.28;95279.59;5010678;28;7871;-60
2023/10/04 01:24:34;;;;;;;;;;;;;;;28.67;42.42;95280.84;5000486;28;7088;-61
2023/10/04 01:27:14;;;;;;;;;;;;;;;28.69;42.42;95289.41;5013148;28;7184;-61
2023/10/04 01:29:52;;;;;;;;;;;;;;;28.64;42.05;95281.13;5002261;28;9115;-61
2023/10/04 01:32:31;;;;;;;;;;;;;;;28.68;41.92;95281.63;5005790;28;7509;-61
2023/10/04 01:34:59;;;;;;;;;;;;;;;28.69;41.97;95280.34;5074484;28;6935;-61
2023/10/04 01:37:31;;;;;;;;;;;;;;;28.65;41.72;95277.84;5071526;28;7208;-60
2023/10/04 01:39:58;;;;;;;;;;;;;;;28.66;41.67;95284.91;5066158;28;7244;-60
2023/10/04 01:42:25;;;;;;;;;;;;;;;28.64;41.46;95276.34;5071500;28;7315;-61
2023/10/04 01:44:54;;;;;;;;;;;;;;;28.67;41.51;95283.63;5058266;28;7224;-62
2023/10/04 01:47:24;;;;;;;;;;;;;;;28.66;42.65;95284.91;5054005;28;8323;-62
2023/10/04 01:49:59;;;;;;;;;;;;;;;28.66;42.54;95278.59;5071948;28;9403;-62
2023/10/04 01:52:54;;;;;;;;;;;;;;;28.65;41.56;95272.31;5076934;28;8746;-62
2023/10/04 01:55:24;;;;;;;;;;;;;;;28.64;42.37;95267.28;5025115;28;7413;-62
2023/10/04 01:57:50;;;;;;;;;;;;;;;28.66;42.00;95268.28;5036463;28;9031;-62
2023/10/04 02:00:18;;;;;;;;;;;;;;;28.69;41.65;95269.25;5019660;28;7511;-62
2023/10/04 02:02:44;;;;;;;;;;;;;;;28.66;41.52;95270.31;5014373;28;9329;-62
2023/10/04 02:05:14;;;;;;;;;;;;;;;28.67;42.41;95261.47;5029412;28;8985;-62
2023/10/04 02:07:51;;;;;;;;;;;;;;;28.67;42.30;95264.25;5011368;28;9086;-62
2023/10/04 02:10:17;;;;;;;;;;;;;;;28.64;41.98;95268.06;5029724;28;7004;-62
2023/10/04 02:12:55;;;;;;;;;;;;;;;28.63;41.46;95274.06;5015890;28;8090;-62
2023/10/04 02:15:34;;;;;;;;;;;;;;;28.61;41.99;95276.59;5029481;28;8791;-62
2023/10/04 02:18:02;;;;;;;;;;;;;;;28.60;42.31;95277.88;5014101;28;9049;-62
2023/10/04 02:20:47;;;;;;;;;;;;;;;28.58;42.62;95275.59;5016843;28;7231;-62
2023/10/04 02:23:24;;;;;;;;;;;;;;;28.56;41.72;95269.78;5029826;28;7062;-62
2023/10/04 02:25:50;;;;;;;;;;;;;;;28.57;41.97;95274.13;5017947;28;8727;-62
2023/10/04 02:28:33;;;;;;;;;;;;;;;28.53;41.71;95262.53;5016518;28;7077;-62
2023/10/04 02:31:02;;;;;;;;;;;;;;;28.53;42.20;95267.31;5051020;28;8755;-62
2023/10/04 02:33:33;;;;;;;;;;;;;;;28.53;42.31;95279.13;5054948;28;7907;-62
2023/10/04 02:36:07;;;;;;;;;;;;;;;28.53;42.29;95281.91;5043138;28;7254;-62
2023/10/04 02:38:36;;;;;;;;;;;;;;;28.53;42.92;95278.38;5061893;28;9244;-62
2023/10/04 02:41:05;;;;;;;;;;;;;;;28.52;42.59;95279.63;5053889;28;7023;-62
2023/10/04 02:43:35;;;;;;;;;;;;;;;28.53;42.29;95283.91;5067271;28;7352;-62
2023/10/04 02:46:24;;;;;;;;;;;;;;;28.48;42.46;95273.59;5064980;28;7230;-62
2023/10/04 02:49:42;;;;;;;;;;;;;;;28.48;42.50;95268.06;5069201;28;7347;-63
2023/10/04 02:52:19;;;;;;;;;;;;;;;28.49;42.67;95264.06;5077594;28;7432;-62
2023/10/04 02:55:05;;;;;;;;;;;;;;;28.49;42.11;95273.13;5054276;28;7244;-61
2023/10/04 02:57:50;;;;;;;;;;;;;;;28.47;41.82;95275.63;5064591;28;7264;-60
2023/10/04 03:00:20;;;;;;;;;;;;;;;28.49;42.81;95275.13;5056611;28;7309;-60
2023/10/04 03:03:19;;;;;;;;;;;;;;;28.48;42.38;95270.84;5060984;28;6982;-60
2023/10/04 03:06:23;;;;;;;;;;;;;;;28.49;42.81;95280.66;4986037;28;9247;-60
2023/10/04 03:09:05;;;;;;;;;;;;;;;28.48;42.03;95285.44;4964382;28;7263;-60
2023/10/04 03:11:32;;;;;;;;;;;;;;;28.46;42.80;95276.13;4944984;28;7249;-60
2023/10/04 03:14:13;;;;;;;;;;;;;;;28.44;42.59;95282.19;4946024;28;7259;-61
2023/10/04 03:17:15;;;;;;;;;;;;;;;28.46;42.91;95284.44;4955829;28;7671;-60
2023/10/04 03:20:20;;;;;;;;;;;;;;;28.45;41.83;95286.44;4952048;28;7066;-60
2023/10/04 03:22:50;;;;;;;;;;;;;;;28.45;42.98;95294.00;4894463;29;8647;-61
2023/10/04 03:25:37;;;;;;;;;;;;;;;28.44;42.25;95290.50;4903577;29;6944;-60
2023/10/04 03:28:05;;;;;;;;;;;;;;;28.41;42.60;95276.91;4896150;29;7092;-60
2023/10/04 03:31:07;;;;;;;;;;;;;;;28.43;42.01;95288.25;4896282;29;7280;-60
2023/10/04 03:33:53;;;;;;;;;;;;;;;28.40;42.27;95281.69;4883082;29;7085;-60
2023/10/04 03:36:29;;;;;;;;;;;;;;;28.41;42.09;95282.44;4900190;29;8747;-61
2023/10/04 03:39:28;;;;;;;;;;;;;;;28.43;43.04;95288.25;4902675;29;7268;-60
2023/10/04 03:42:16;;;;;;;;;;;;;;;28.41;42.30;95294.25;4860819;29;7260;-60
2023/10/04 03:45:10;;;;;;;;;;;;;;;28.41;42.42;95304.56;4957139;28;9128;-60
2023/10/04 03:47:39;;;;;;;;;;;;;;;28.38;41.93;95300.81;4953952;28;8778;-60
2023/10/04 03:50:11;;;;;;;;;;;;;;;28.40;42.46;95298.31;4961361;28;7407;-60
2023/10/04 03:52:48;;;;;;;;;;;;;;;28.38;42.45;95297.31;4937337;28;7258;-60
2023/10/04 03:55:25;;;;;;;;;;;;;;;28.41;42.78;95301.81;4941142;28;7347;-60
2023/10/04 03:57:54;;;;;;;;;;;;;;;28.40;42.52;95297.53;4939531;28;7250;-60
2023/10/04 04:00:39;;;;;;;;;;;;;;;28.38;42.39;95298.78;4996180;28;8794;-61
2023/10/04 04:03:15;;;;;;;;;;;;;;;28.36;42.21;95292.28;4995440;28;7233;-56
2023/10/04 04:05:54;;;;;;;;;;;;;;;28.40;41.76;95303.84;4993783;28;8768;-55
2023/10/04 04:08:31;;;;;;;;;;;;;;;28.40;42.52;95309.38;4992313;28;7517;-55
2023/10/04 04:10:57;;;;;;;;;;;;;;;28.39;42.01;95307.84;4991324;28;9419;-55
2023/10/04 04:13:24;;;;;;;;;;;;;;;28.37;42.37;95299.31;4977445;28;9092;-55
2023/10/04 04:15:52;;;;;;;;;;;;;;;28.35;42.58;95302.59;4993659;28;9566;-55
2023/10/04 04:18:54;;;;;;;;;;;;;;;28.39;42.07;95305.09;5029248;28;7233;-55
2023/10/04 04:21:30;;;;;;;;;;;;;;;28.38;41.91;95305.59;5077805;28;7176;-55
2023/10/04 04:23:58;;;;;;;;;;;;;;;28.34;42.56;95305.84;5074250;28;7323;-55
2023/10/04 04:26:39;;;;;;;;;;;;;;;28.34;42.11;95300.31;5075846;28;7212;-56
2023/10/04 04:29:05;;;;;;;;;;;;;;;28.34;42.06;95298.31;5076617;28;7229;-56
2023/10/04 04:31:52;;;;;;;;;;;;;;;28.35;42.32;95302.59;5074157;28;7514;-55
2023/10/04 04:34:29;;;;;;;;;;;;;;;28.33;42.12;95296.81;5063016;28;7230;-56
2023/10/04 04:37:08;;;;;;;;;;;;;;;28.33;42.03;95296.06;5077186;28;9143;-56
2023/10/04 04:39:43;;;;;;;;;;;;;;;28.31;42.84;95293.81;5065814;28;10101;-55
2023/10/04 04:42:12;;;;;;;;;;;;;;;28.34;42.94;95305.84;5055387;28;9002;-56
2023/10/04 04:44:42;;;;;;;;;;;;;;;28.34;42.76;95305.84;5078254;28;9253;-56
2023/10/04 04:47:22;;;;;;;;;;;;;;;28.35;42.40;95307.38;5077975;28;9127;-56
2023/10/04 04:49:54;;;;;;;;;;;;;;;28.33;43.06;95316.19;5059653;28;7361;-56
2023/10/04 04:52:54;;;;;;;;;;;;;;;28.32;42.38;95327.75;5060787;28;7221;-56
2023/10/04 04:55:22;;;;;;;;;;;;;;;28.33;42.84;95309.88;4997237;28;7233;-56
2023/10/04 04:58:25;;;;;;;;;;;;;;;28.32;43.14;95317.44;5019748;28;7191;-56
2023/10/04 05:01:34;;;;;;;;;;;;;;;28.32;42.79;95316.66;4929857;29;7228;-56
2023/10/04 05:04:05;;;;;;;;;;;;;;;28.28;42.65;95316.94;4893119;29;9298;-56
2023/10/04 05:06:44;;;;;;;;;;;;;;;28.28;42.60;95316.19;4900716;29;7410;-56
2023/10/04 05:09:34;;;;;;;;;;;;;;;28.29;42.52;95317.69;4896393;29;7289;-56
2023/10/04 05:12:17;;;;;;;;;;;;;;;28.28;42.63;95313.41;4894642;29;9092;-56
2023/10/04 05:14:59;;;;;;;;;;;;;;;28.28;43.05;95319.72;4891099;29;8194;-64
2023/10/04 05:17:37;;;;;;;;;;;;;;;28.25;41.84;95319.97;4896585;29;7193;-63
2023/10/04 05:20:20;;;;;;;;;;;;;;;28.25;42.39;95325.50;4890920;29;7224;-64
2023/10/04 05:22:54;;;;;;;;;;;;;;;28.26;42.70;95325.00;4896591;29;9374;-64
2023/10/04 05:26:00;;;;;;;;;;;;;;;28.30;42.06;95327.50;4886245;29;7206;-64
2023/10/04 05:28:35;;;;;;;;;;;;;;;28.28;41.69;95332.78;4869203;29;7268;-64
2023/10/04 05:31:15;;;;;;;;;;;;;;;28.29;42.09;95334.31;4853906;29;7387;-63
2023/10/04 05:33:43;;;;;;;;;;;;;;;28.27;42.52;95334.78;4874974;29;8370;-64
2023/10/04 05:36:12;;;;;;;;;;;;;;;28.25;41.69;95331.78;4932008;28;7988;-62
2023/10/04 05:38:38;;;;;;;;;;;;;;;28.22;42.10;95332.81;4994947;28;7897;-62
2023/10/04 05:41:04;;;;;;;;;;;;;;;28.21;42.51;95331.28;4989553;28;7056;-63
2023/10/04 05:43:34;;;;;;;;;;;;;;;28.24;42.34;95344.13;4971095;28;9505;-63
2023/10/04 05:46:26;;;;;;;;;;;;;;;28.23;42.49;95341.88;4992001;28;8618;-62
2023/10/04 05:48:53;;;;;;;;;;;;;;;28.20;41.63;95334.56;4992602;28;8826;-64
2023/10/04 05:51:24;;;;;;;;;;;;;;;28.23;41.84;95333.56;4975688;28;6994;-64
2023/10/04 05:53:53;;;;;;;;;;;;;;;28.23;41.66;95350.91;4971833;28;7004;-64
2023/10/04 05:56:20;;;;;;;;;;;;;;;28.25;42.13;95355.94;4992802;28;8981;-64
2023/10/04 05:58:49;;;;;;;;;;;;;;;28.24;42.04;95355.19;4994650;28;7150;-64
2023/10/04 06:01:19;;;;;;;;;;;;;;;28.23;42.02;95358.47;4996634;28;9279;-64
2023/10/04 06:03:50;;;;;;;;;;;;;;;28.25;41.88;95359.44;5078232;28;7568;-64
2023/10/04 06:06:28;;;;;;;;;;;;;;;28.24;41.94;95362.72;5064905;28;9203;-64
2023/10/04 06:09:06;;;;;;;;;;;;;;;28.22;41.28;95366.00;5053934;28;8729;-64
2023/10/04 06:11:32;;;;;;;;;;;;;;;28.22;42.19;95365.25;5076458;28;6980;-64
2023/10/04 06:14:11;;;;;;;;;;;;;;;28.23;42.27;95369.53;5066462;28;6955;-64
2023/10/04 06:16:42;;;;;;;;;;;;;;;28.21;42.27;95369.25;5080780;28;6995;-64
2023/10/04 06:19:08;;;;;;;;;;;;;;;28.21;41.87;95372.78;5052389;28;9144;-64
2023/10/04 06:21:36;;;;;;;;;;;;;;;28.20;42.20;95381.59;5047267;28;7036;-64
2023/10/04 06:24:06;;;;;;;;;;;;;;;28.20;41.91;95373.28;5069751;28;7160;-60
2023/10/04 06:26:35;;;;;;;;;;;;;;;28.18;41.63;95371.03;5049586;28;9059;-60
2023/10/04 06:29:22;;;;;;;;;;;;;;;28.20;41.87;95373.28;5052423;28;8870;-60
2023/10/04 06:32:19;;;;;;;;;;;;;;;28.18;42.34;95373.81;5060638;28;7167;-60
2023/10/04 06:34:46;;;;;;;;;;;;;;;28.20;41.66;95363.00;5040256;28;9439;-60
2023/10/04 06:37:15;;;;;;;;;;;;;;;28.20;42.12;95374.06;5069057;28;7248;-60
2023/10/04 06:39:47;;;;;;;;;;;;;;;28.20;42.32;95367.75;5088717;28;7139;-60
2023/10/04 06:42:16;;;;;;;;;;;;;;;28.19;42.17;95369.00;5047172;28;6860;-60
2023/10/04 06:44:45;;;;;;;;;;;;;;;28.19;42.35;95375.31;5052169;28;8966;-60
2023/10/04 06:47:17;;;;;;;;;;;;;;;28.20;41.89;95378.81;5071879;28;8726;-60
2023/10/04 06:49:45;;;;;;;;;;;;;;;28.21;42.44;95385.84;5072089;28;7044;-60
2023/10/04 06:52:12;;;;;;;;;;;;;;;28.20;42.30;95378.81;5063415;28;7139;-60
2023/10/04 06:55:15;;;;;;;;;;;;;;;28.22;41.82;95376.31;5075602;28;8257;-60
2023/10/04 06:58:12;;;;;;;;;;;;;;;28.20;42.57;95381.59;4995328;28;7019;-60
2023/10/04 07:00:52;;;;;;;;;;;;;;;28.18;42.06;95373.03;4945629;28;7813;-59
2023/10/04 07:03:21;;;;;;;;;;;;;;;28.18;42.21;95381.34;4959924;28;7619;-59
2023/10/04 07:05:49;;;;;;;;;;;;;;;28.16;42.12;95383.88;4959388;28;7071;-59
2023/10/04 07:08:16;;;;;;;;;;;;;;;28.17;41.58;95385.34;4948575;29;7231;-59
2023/10/04 07:10:45;;;;;;;;;;;;;;;28.16;41.39;95373.56;4957509;28;7230;-59
2023/10/04 07:13:22;;;;;;;;;;;;;;;28.13;42.06;95373.78;4957945;28;7004;-59
2023/10/04 07:15:48;;;;;;;;;;;;;;;28.16;41.62;95362.50;4958553;28;7050;-59
2023/10/04 07:18:14;;;;;;;;;;;;;;;28.17;42.08;95363.22;4935986;29;9247;-60
2023/10/04 07:20:59;;;;;;;;;;;;;;;28.13;42.01;95360.72;4955198;28;7218;-59
2023/10/04 07:23:46;;;;;;;;;;;;;;;28.11;42.07;95354.94;4971340;28;9192;-59
2023/10/04 07:26:26;;;;;;;;;;;;;;;28.15;41.80;95360.22;4940728;28;7470;-59
2023/10/04 07:28:52;;;;;;;;;;;;;;;28.16;41.40;95373.56;4955816;28;6996;-60
2023/10/04 07:31:36;;;;;;;;;;;;;;;28.17;41.49;95375.06;4943001;28;10078;-59
2023/10/04 07:34:27;;;;;;;;;;;;;;;28.18;41.85;95362.75;4975872;28;7264;-61
2023/10/04 07:37:00;;;;;;;;;;;;;;;28.16;42.20;95350.66;5003085;28;8846;-60
2023/10/04 07:39:37;;;;;;;;;;;;;;;28.14;42.30;95342.84;5066010;28;7330;-61
2023/10/04 07:42:05;;;;;;;;;;;;;;;28.17;41.80;95347.38;5072598;28;7258;-61
2023/10/04 07:44:50;;;;;;;;;;;;;;;28.18;41.80;95350.91;5066146;28;7021;-61
2023/10/04 07:47:36;;;;;;;;;;;;;;;28.20;41.75;95346.38;5070250;28;8852;-61
2023/10/04 07:50:05;;;;;;;;;;;;;;;28.20;41.66;95351.16;5027066;28;7261;-61
2023/10/04 07:52:31;;;;;;;;;;;;;;;28.21;42.08;95336.06;5080205;28;7424;-61
2023/10/04 07:55:19;;;;;;;;;;;;;;;28.21;42.26;95334.06;5058604;28;9161;-61
2023/10/04 07:57:49;;;;;;;;;;;;;;;28.20;41.92;95334.56;5058894;28;7235;-61
2023/10/04 08:00:16;;;;;;;;;;;;;;;28.21;42.20;95347.13;5074692;28;7154;-61
2023/10/04 08:02:50;;;;;;;;;;;;;;;28.19;41.84;95355.94;5043931;28;8454;-61
2023/10/04 08:05:33;;;;;;;;;;;;;;;28.20;41.83;95359.47;5045909;28;9067;-61
2023/10/04 08:08:02;;;;;;;;;;;;;;;28.20;41.87;95367.75;5065521;28;7509;-61
2023/10/04 08:10:29;;;;;;;;;;;;;;;28.20;41.99;95363.00;5067847;28;7017;-61
2023/10/04 08:13:00;;;;;;;;;;;;;;;28.21;42.29;95366.50;5071617;28;7281;-61
2023/10/04 08:15:30;;;;;;;;;;;;;;;28.21;42.19;95366.50;5071746;28;7401;-61
2023/10/04 08:18:01;;;;;;;;;;;;;;;28.17;41.97;95361.22;5056018;28;7704;-60
2023/10/04 08:21:03;;;;;;;;;;;;;;;28.20;41.66;95367.75;5077447;28;7343;-61
2023/10/04 08:23:29;;;;;;;;;;;;;;;28.18;41.89;95365.50;5013880;28;9208;-61
2023/10/04 08:26:23;;;;;;;;;;;;;;;28.21;42.18;95367.25;4997316;28;9069;-61
2023/10/04 08:28:51;;;;;;;;;;;;;;;28.18;42.33;95365.50;4950020;28;9433;-61
2023/10/04 08:31:18;;;;;;;;;;;;;;;28.19;41.98;95363.47;4973656;28;7248;-60
2023/10/04 08:33:49;;;;;;;;;;;;;;;28.16;41.94;95365.25;4949581;28;7235;-60
2023/10/04 08:36:21;;;;;;;;;;;;;;;28.22;41.97;95373.53;4942629;28;7233;-60
2023/10/04 08:38:48;;;;;;;;;;;;;;;28.22;41.66;95362.47;4942729;28;7002;-60
2023/10/04 08:41:27;;;;;;;;;;;;;;;28.22;42.01;95368.00;4948116;28;7608;-60
2023/10/04 08:44:23;;;;;;;;;;;;;;;28.24;42.43;95371.03;4960364;28;9155;-61
2023/10/04 08:47:05;;;;;;;;;;;;;;;28.22;42.40;95376.31;4897033;29;7844;-61
2023/10/04 08:49:46;;;;;;;;;;;;;;;28.23;42.42;95369.53;4885698;29;6860;-61
2023/10/04 08:52:32;;;;;;;;;;;;;;;28.20;41.64;95365.75;4889016;29;7255;-62
2023/10/04 08:55:07;;;;;;;;;;;;;;;28.23;42.04;95361.22;4902208;29;8827;-61
2023/10/04 08:57:43;;;;;;;;;;;;;;;28.24;41.73;95363.47;4902332;29;7506;-61
2023/10/04 09:00:14;;;;;;;;;;;;;;;28.28;42.60;95361.22;4914308;29;7440;-61
2023/10/04 09:02:45;;;;;;;;;;;;;;;28.26;42.16;95365.72;4935596;29;9348;-61
2023/10/04 09:05:20;;;;;;;;;;;;;;;28.28;41.55;95368.75;4960602;28;7240;-61
2023/10/04 09:08:22;;;;;;;;;;;;;;;28.25;41.99;95369.78;4978508;28;7252;-61
2023/10/04 09:10:53;;;;;;;;;;;;;;;28.25;42.13;95364.97;4989742;28;7613;-61
2023/10/04 09:13:30;;;;;;;;;;;;;;;28.24;42.00;95351.66;4977466;28;7361;-62
2023/10/04 09:16:30;;;;;;;;;;;;;;;28.26;42.07;95363.72;4979396;28;7237;-61
2023/10/04 09:19:12;;;;;;;;;;;;;;;28.26;41.52;95360.19;4932235;29;9385;-61
2023/10/04 09:22:07;;;;;;;;;;;;;;;28.26;42.47;95349.91;4965014;28;7928;-62
2023/10/04 09:24:55;;;;;;;;;;;;;;;28.28;41.97;95341.84;4960437;28;7179;-61
2023/10/04 09:27:33;;;;;;;;;;;;;;;28.27;41.55;95339.59;4969727;28;9506;-61
2023/10/04 09:30:02;;;;;;;;;;;;;;;28.27;41.76;95334.78;4937548;28;8768;-61
2023/10/04 09:32:35;;;;;;;;;;;;;;;28.29;41.73;95337.06;4955287;28;7199;-61
2023/10/04 09:35:08;;;;;;;;;;;;;;;28.30;41.65;95338.56;4945462;28;9157;-61
2023/10/04 09:37:34;;;;;;;;;;;;;;;28.26;41.91;95333.28;4933840;29;9166;-60
2023/10/04 09:40:34;;;;;;;;;;;;;;;28.29;41.23;95331.53;4967689;28;9103;-61
2023/10/04 09:43:02;;;;;;;;;;;;;;;28.31;41.64;95331.78;4918434;29;7489;-61
2023/10/04 09:45:31;;;;;;;;;;;;;;;28.29;41.57;95326.00;4940781;28;7000;-61
2023/10/04 09:48:02;;;;;;;;;;;;;;;28.31;41.85;95323.47;4934139;29;9050;-61
2023/10/04 09:50:29;;;;;;;;;;;;;;;28.32;44.18;95322.19;4936133;28;8870;-61
2023/10/04 09:52:58;;;;;;;;;;;;;;;28.35;43.71;95321.19;4935256;28;7243;-64
2023/10/04 09:55:25;;;;;;;;;;;;;;;28.35;43.08;95312.91;4967835;28;6892;-56
2023/10/04 09:57:58;;;;;;;;;;;;;;;28.31;42.97;95304.13;4996439;28;7288;-56
2023/10/04 10:00:30;;;;;;;;;;;;;;;28.35;42.65;95307.38;4998874;28;7374;-56
2023/10/04 10:03:03;;;;;;;;;;;;;;;28.34;42.47;95311.38;4981940;28;7050;-56
2023/10/04 10:05:34;;;;;;;;;;;;;;;28.32;42.21;95309.13;4981896;28;8004;-56
2023/10/04 10:08:06;;;;;;;;;;;;;;;28.33;42.73;95302.34;4994905;28;7192;-56
2023/10/04 10:10:37;;;;;;;;;;;;;;;28.34;42.24;95303.84;4998214;28;8770;-56
2023/10/04 10:13:12;;;;;;;;;;;;;;;28.31;43.03;95299.34;4951215;28;1145021;-56
2023/10/04 10:15:38;;;;;;;;;;;;;;;28.32;42.21;95291.75;4982554;28;9174;-56
2023/10/04 10:18:07;;;;;;;;;;;;;;;28.33;42.16;95299.59;4993217;28;7630;-56
2023/10/04 10:20:34;;;;;;;;;;;;;;;28.33;42.45;95293.28;5062703;28;7285;-56
2023/10/04 10:23:00;;;;;;;;;;;;;;;28.33;41.86;95294.03;5059012;28;7192;-56
2023/10/04 10:25:29;;;;;;;;;;;;;;;28.32;41.87;95287.00;5066991;28;9085;-56
2023/10/04 10:28:01;;;;;;;;;;;;;;;28.36;42.30;95290.25;5062368;28;8674;-56
2023/10/04 10:30:30;;;;;;;;;;;;;;;28.38;42.72;95286.22;5058932;28;7003;-56
2023/10/04 10:33:02;;;;;;;;;;;;;;;28.39;42.86;95280.19;5055739;28;7079;-56
2023/10/04 10:35:46;;;;;;;;;;;;;;;28.40;42.59;95283.72;5060215;28;7750;-56
2023/10/04 10:38:40;;;;;;;;;;;;;;;28.40;42.55;95276.16;5065685;28;7208;-56
2023/10/04 10:41:31;;;;;;;;;;;;;;;28.41;42.91;95265.81;5068776;28;7336;-56
2023/10/04 10:44:18;;;;;;;;;;;;;;;28.39;43.01;95255.28;5075996;28;9015;-56
2023/10/04 10:47:06;;;;;;;;;;;;;;;28.42;42.28;95253.50;5069497;28;6977;-56
2023/10/04 10:49:44;;;;;;;;;;;;;;;28.43;42.52;95253.00;5076522;28;9141;-56
2023/10/04 10:52:26;;;;;;;;;;;;;;;28.42;43.01;95257.03;5084409;28;6856;-56
2023/10/04 10:54:54;;;;;;;;;;;;;;;28.43;42.91;95250.22;5080563;28;7261;-56
2023/10/04 10:57:30;;;;;;;;;;;;;;;28.44;42.60;95260.03;5059215;28;8888;-55
2023/10/04 11:00:11;;;;;;;;;;;;;;;28.48;42.50;95262.53;5084635;28;8959;-56
2023/10/04 11:02:37;;;;;;;;;;;;;;;28.50;42.52;95255.22;5039176;28;7514;-56
2023/10/04 11:05:06;;;;;;;;;;;;;;;28.50;41.84;95252.47;5045671;28;9070;-56
2023/10/04 11:07:33;;;;;;;;;;;;;;;28.51;42.64;95254.00;5056682;28;6959;-56
2023/10/04 11:09:59;;;;;;;;;;;;;;;28.53;42.58;95256.22;5082277;28;8745;-56
2023/10/04 11:12:25;;;;;;;;;;;;;;;28.55;42.62;95268.31;5073408;28;8754;-56
2023/10/04 11:14:57;;;;;;;;;;;;;;;28.53;42.08;95270.06;5078133;28;9362;-56
2023/10/04 11:17:23;;;;;;;;;;;;;;;28.52;42.54;95276.84;5078271;28;7082;-56
2023/10/04 11:19:52;;;;;;;;;;;;;;;28.51;42.30;95267.81;5050542;28;9177;-56
2023/10/04 11:22:23;;;;;;;;;;;;;;;28.54;42.70;95269.56;5072609;28;8458;-56
2023/10/04 11:25:34;;;;;;;;;;;;;;;28.53;42.69;95259.75;5055190;28;7260;-56
2023/10/04 11:28:03;;;;;;;;;;;;;;;28.56;43.10;95260.75;4992431;28;6871;-56
2023/10/04 11:30:42;;;;;;;;;;;;;;;28.53;42.74;95259.75;4985525;28;7225;-56
2023/10/04 11:33:13;;;;;;;;;;;;;;;28.57;41.94;95253.94;5007958;28;8771;-56
2023/10/04 11:35:52;;;;;;;;;;;;;;;28.55;42.26;95254.47;5003885;28;8792;-56
2023/10/04 11:38:19;;;;;;;;;;;;;;;28.58;41.75;95245.16;5011349;28;7130;-56
2023/10/04 11:40:52;;;;;;;;;;;;;;;28.55;41.92;95242.63;5011219;28;7192;-56
2023/10/04 11:43:24;;;;;;;;;;;;;;;28.58;42.19;95253.47;5009251;28;7232;-55
2023/10/04 11:46:23;;;;;;;;;;;;;;;28.60;41.73;95250.19;5009441;28;9228;-56
2023/10/04 11:49:22;;;;;;;;;;;;;;;28.64;42.48;95236.84;4940550;28;7222;-56
2023/10/04 11:51:53;;;;;;;;;;;;;;;28.63;42.26;95233.31;4934532;29;7558;-56
2023/10/04 11:54:20;;;;;;;;;;;;;;;28.64;42.52;95229.28;4952182;28;7229;-56
2023/10/04 11:57:25;;;;;;;;;;;;;;;28.66;42.11;95226.00;4936980;29;9205;-56
2023/10/04 11:59:52;;;;;;;;;;;;;;;28.64;42.13;95229.28;4944580;28;6965;-56
2023/10/04 12:02:22;;;;;;;;;;;;;;;28.63;41.61;95221.47;4950020;28;7012;-56
2023/10/04 12:05:05;;;;;;;;;;;;;;;28.66;42.46;95209.41;4975732;28;8850;-56
2023/10/04 12:07:39;;;;;;;;;;;;;;;28.64;41.86;95207.16;4991415;28;7269;-56
2023/10/04 12:10:09;;;;;;;;;;;;;;;28.66;42.12;95220.47;5004435;28;7324;-56
2023/10/04 12:12:36;;;;;;;;;;;;;;;28.62;42.32;95222.75;5003877;28;8737;-56
2023/10/04 12:15:07;;;;;;;;;;;;;;;28.68;42.35;95227.00;5021154;28;7241;-55
2023/10/04 12:17:36;;;;;;;;;;;;;;;28.68;41.97;95226.25;4994775;28;7343;-55
2023/10/04 12:20:38;;;;;;;;;;;;;;;28.71;41.96;95220.44;4992898;28;7284;-55
2023/10/04 12:23:22;;;;;;;;;;;;;;;28.74;41.50;95227.72;4994889;28;7512;-55
2023/10/04 12:26:20;;;;;;;;;;;;;;;28.76;41.56;95219.66;5047897;28;7045;-53
2023/10/04 12:28:47;;;;;;;;;;;;;;;28.75;41.80;95217.41;5059697;28;7384;-55
2023/10/04 12:31:18;;;;;;;;;;;;;;;28.75;42.27;95209.09;5059591;28;7022;-55
2023/10/04 12:33:45;;;;;;;;;;;;;;;28.73;42.49;95215.13;5053523;28;7012;-55
2023/10/04 12:36:28;;;;;;;;;;;;;;;28.75;42.14;95206.34;5063836;28;7508;-55
2023/10/04 12:39:07;;;;;;;;;;;;;;;28.78;42.01;95203.28;5071747;28;7101;-55
2023/10/04 12:41:33;;;;;;;;;;;;;;;28.80;42.27;95202.75;5070228;28;7053;-55
2023/10/04 12:44:41;;;;;;;;;;;;;;;28.84;42.35;95203.25;5082578;28;8712;-54
2023/10/04 12:47:12;;;;;;;;;;;;;;;28.87;41.42;95199.44;5060262;28;8886;-55
2023/10/04 12:49:38;;;;;;;;;;;;;;;28.87;41.55;95197.44;5062791;28;8828;-55
2023/10/04 12:52:12;;;;;;;;;;;;;;;28.89;41.83;95203.22;5067899;28;8753;-54
2023/10/04 12:54:59;;;;;;;;;;;;;;;28.94;42.06;95204.44;5040216;28;7258;-55
2023/10/04 12:57:25;;;;;;;;;;;;;;;28.93;41.58;95203.69;5056635;28;7158;-55
2023/10/04 12:59:52;;;;;;;;;;;;;;;28.89;41.59;95208.75;5040878;28;7279;-55
2023/10/04 13:02:22;;;;;;;;;;;;;;;28.92;41.91;95210.50;5095786;28;7259;-54
2023/10/04 13:04:54;;;;;;;;;;;;;;;28.94;41.81;95207.22;5084388;28;8231;-55
2023/10/04 13:07:21;;;;;;;;;;;;;;;28.92;41.83;95204.97;5038471;28;7243;-55
2023/10/04 13:09:50;;;;;;;;;;;;;;;28.95;41.75;95200.41;5054527;28;7230;-55
2023/10/04 13:12:18;;;;;;;;;;;;;;;28.97;41.46;95206.19;5063039;28;9415;-55
2023/10/04 13:14:44;;;;;;;;;;;;;;;28.97;41.82;95201.38;5047591;28;7235;-53
2023/10/04 13:17:17;;;;;;;;;;;;;;;29.00;41.69;95197.59;5062119;28;7247;-55
2023/10/04 13:19:45;;;;;;;;;;;;;;;29.01;41.82;95192.81;5062743;28;7466;-55
2023/10/04 13:22:12;;;;;;;;;;;;;;;29.08;41.98;95206.09;5045166;28;7295;-55
2023/10/04 13:25:04;;;;;;;;;;;;;;;29.09;41.38;95191.75;5042744;28;7280;-61
2023/10/04 13:27:33;;;;;;;;;;;;;;;29.08;41.25;95190.22;5010247;28;7178;-61
2023/10/04 13:30:04;;;;;;;;;;;;;;;29.13;41.54;95188.69;5017032;28;7894;-61
2023/10/04 13:32:35;;;;;;;;;;;;;;;29.12;41.89;95194.75;5023282;28;9113;-61
2023/10/04 13:35:01;;;;;;;;;;;;;;;29.14;41.79;95197.75;5036310;28;8944;-61
2023/10/04 13:37:36;;;;;;;;;;;;;;;29.13;41.81;95185.91;5023745;28;9117;-61
2023/10/04 13:40:08;;;;;;;;;;;;;;;29.12;41.56;95192.75;5030836;28;7373;-61
2023/10/04 13:42:44;;;;;;;;;;;;;;;29.14;41.82;95194.97;5013981;28;7233;-61
2023/10/04 13:45:10;;;;;;;;;;;;;;;29.12;41.80;95189.22;5033210;28;7248;-61